sensor_id;sensor_type;location;lat;lon;timestamp;P1;durP1;ratioP1;P2;durP2;ratioP2
22861;SDS011;11598;50.652;6.172;2023-04-23T00:09:21;18.75;;;11.48;;
22861;SDS011;11598;50.652;6.172;2023-04-23T00:19:22;18.55;;;11.45;;
22861;SDS011;11598;50.652;6.172;2023-04-23T00:29:23;15.20;;;9.93;;
22861;SDS011;11598;50.652;6.172;2023-04-23T00:39:23;15.38;;;9.18;;
22861;SDS011;11598;50.652;6.172;2023-04-23T00:49:24;13.85;;;9.55;;
22861;SDS011;11598;50.652;6.172;2023-04-23T00:59:25;15.55;;;8.88;;
22861;SDS011;11598;50.652;6.172;2023-04-23T01:09:25;14.90;;;9.48;;
22861;SDS011;11598;50.652;6.172;2023-04-23T01:19:31;15.88;;;9.00;;
22861;SDS011;11598;50.652;6.172;2023-04-23T01:29:32;13.65;;;9.35;;
22861;SDS011;11598;50.652;6.172;2023-04-23T01:39:33;18.70;;;10.23;;
22861;SDS011;11598;50.652;6.172;2023-04-23T01:49:35;16.02;;;10.90;;
22861;SDS011;11598;50.652;6.172;2023-04-23T01:59:35;21.48;;;13.27;;
22861;SDS011;11598;50.652;6.172;2023-04-23T02:09:36;23.65;;;13.82;;
22861;SDS011;11598;50.652;6.172;2023-04-23T02:19:37;21.42;;;14.45;;
22861;SDS011;11598;50.652;6.172;2023-04-23T02:29:37;21.20;;;14.40;;
22861;SDS011;11598;50.652;6.172;2023-04-23T02:39:37;21.10;;;13.70;;
22861;SDS011;11598;50.652;6.172;2023-04-23T02:49:38;16.38;;;12.25;;
22861;SDS011;11598;50.652;6.172;2023-04-23T02:59:38;18.60;;;12.35;;
22861;SDS011;11598;50.652;6.172;2023-04-23T03:09:38;17.40;;;11.52;;
22861;SDS011;11598;50.652;6.172;2023-04-23T03:19:41;14.52;;;10.40;;
22861;SDS011;11598;50.652;6.172;2023-04-23T03:29:41;17.50;;;11.07;;
22861;SDS011;11598;50.652;6.172;2023-04-23T03:39:41;14.85;;;10.88;;
22861;SDS011;11598;50.652;6.172;2023-04-23T03:49:42;18.05;;;12.23;;
22861;SDS011;11598;50.652;6.172;2023-04-23T03:59:44;21.85;;;13.07;;
22861;SDS011;11598;50.652;6.172;2023-04-23T04:09:44;18.70;;;12.38;;
22861;SDS011;11598;50.652;6.172;2023-04-23T04:19:46;17.10;;;12.25;;
22861;SDS011;11598;50.652;6.172;2023-04-23T04:29:46;18.17;;;11.40;;
22861;SDS011;11598;50.652;6.172;2023-04-23T04:39:47;16.48;;;10.85;;
22861;SDS011;11598;50.652;6.172;2023-04-23T04:49:48;14.57;;;10.80;;
22861;SDS011;11598;50.652;6.172;2023-04-23T04:59:48;17.75;;;10.18;;
22861;SDS011;11598;50.652;6.172;2023-04-23T05:09:49;16.75;;;9.82;;
22861;SDS011;11598;50.652;6.172;2023-04-23T05:19:49;15.63;;;9.90;;
22861;SDS011;11598;50.652;6.172;2023-04-23T05:29:50;15.15;;;10.85;;
22861;SDS011;11598;50.652;6.172;2023-04-23T05:39:51;12.10;;;7.75;;
22861;SDS011;11598;50.652;6.172;2023-04-23T05:49:51;12.25;;;7.70;;
22861;SDS011;11598;50.652;6.172;2023-04-23T05:59:51;14.65;;;8.27;;
22861;SDS011;11598;50.652;6.172;2023-04-23T06:09:52;13.27;;;7.47;;
22861;SDS011;11598;50.652;6.172;2023-04-23T06:19:53;10.85;;;7.47;;
22861;SDS011;11598;50.652;6.172;2023-04-23T06:29:53;10.38;;;6.90;;
22861;SDS011;11598;50.652;6.172;2023-04-23T06:39:53;12.55;;;5.70;;
22861;SDS011;11598;50.652;6.172;2023-04-23T06:49:54;9.10;;;4.75;;
22861;SDS011;11598;50.652;6.172;2023-04-23T06:59:54;8.95;;;3.63;;
22861;SDS011;11598;50.652;6.172;2023-04-23T07:09:54;6.63;;;3.55;;
22861;SDS011;11598;50.652;6.172;2023-04-23T07:19:55;8.32;;;3.22;;
22861;SDS011;11598;50.652;6.172;2023-04-23T07:29:55;9.05;;;2.67;;
22861;SDS011;11598;50.652;6.172;2023-04-23T07:39:55;6.50;;;2.60;;
22861;SDS011;11598;50.652;6.172;2023-04-23T07:49:56;7.25;;;2.60;;
22861;SDS011;11598;50.652;6.172;2023-04-23T07:59:56;5.10;;;1.85;;
22861;SDS011;11598;50.652;6.172;2023-04-23T08:09:57;9.35;;;1.83;;
22861;SDS011;11598;50.652;6.172;2023-04-23T08:20:05;6.95;;;2.28;;
22861;SDS011;11598;50.652;6.172;2023-04-23T08:30:06;3.55;;;1.20;;
22861;SDS011;11598;50.652;6.172;2023-04-23T08:40:07;3.63;;;1.10;;
22861;SDS011;11598;50.652;6.172;2023-04-23T08:50:12;6.30;;;1.75;;
22861;SDS011;11598;50.652;6.172;2023-04-23T09:00:19;5.70;;;1.90;;
22861;SDS011;11598;50.652;6.172;2023-04-23T09:10:22;7.28;;;1.40;;
22861;SDS011;11598;50.652;6.172;2023-04-23T09:20:22;7.93;;;1.17;;
22861;SDS011;11598;50.652;6.172;2023-04-23T09:30:23;7.53;;;1.48;;
22861;SDS011;11598;50.652;6.172;2023-04-23T09:40:25;7.72;;;1.42;;
22861;SDS011;11598;50.652;6.172;2023-04-23T09:50:33;5.47;;;1.05;;
22861;SDS011;11598;50.652;6.172;2023-04-23T10:00:36;4.00;;;1.10;;
22861;SDS011;11598;50.652;6.172;2023-04-23T10:10:37;5.68;;;1.17;;
22861;SDS011;11598;50.652;6.172;2023-04-23T10:20:38;6.03;;;1.08;;
22861;SDS011;11598;50.652;6.172;2023-04-23T10:30:39;4.72;;;0.82;;
22861;SDS011;11598;50.652;6.172;2023-04-23T10:40:42;9.43;;;1.30;;
22861;SDS011;11598;50.652;6.172;2023-04-23T10:50:45;4.30;;;1.30;;
22861;SDS011;11598;50.652;6.172;2023-04-23T11:00:46;5.70;;;1.20;;
22861;SDS011;11598;50.652;6.172;2023-04-23T11:10:54;2.90;;;0.80;;
22861;SDS011;11598;50.652;6.172;2023-04-23T11:20:56;5.18;;;1.00;;
22861;SDS011;11598;50.652;6.172;2023-04-23T11:30:56;6.47;;;0.93;;
22861;SDS011;11598;50.652;6.172;2023-04-23T11:40:56;5.03;;;0.93;;
22861;SDS011;11598;50.652;6.172;2023-04-23T11:50:57;4.88;;;0.82;;
22861;SDS011;11598;50.652;6.172;2023-04-23T12:00:57;6.05;;;0.80;;
22861;SDS011;11598;50.652;6.172;2023-04-23T12:11:01;7.93;;;1.30;;
22861;SDS011;11598;50.652;6.172;2023-04-23T12:21:10;5.70;;;1.20;;
22861;SDS011;11598;50.652;6.172;2023-04-23T12:31:17;3.85;;;0.88;;
22861;SDS011;11598;50.652;6.172;2023-04-23T12:41:21;4.95;;;1.05;;
22861;SDS011;11598;50.652;6.172;2023-04-23T12:51:22;5.70;;;1.13;;
22861;SDS011;11598;50.652;6.172;2023-04-23T13:01:22;5.07;;;1.13;;
22861;SDS011;11598;50.652;6.172;2023-04-23T13:11:23;5.13;;;0.85;;
22861;SDS011;11598;50.652;6.172;2023-04-23T13:21:23;3.42;;;1.10;;
22861;SDS011;11598;50.652;6.172;2023-04-23T13:31:23;6.35;;;0.70;;
22861;SDS011;11598;50.652;6.172;2023-04-23T13:41:25;5.35;;;0.70;;
22861;SDS011;11598;50.652;6.172;2023-04-23T13:51:25;4.05;;;0.93;;
22861;SDS011;11598;50.652;6.172;2023-04-23T14:01:26;4.97;;;1.40;;
22861;SDS011;11598;50.652;6.172;2023-04-23T14:11:28;6.50;;;1.70;;
22861;SDS011;11598;50.652;6.172;2023-04-23T14:21:28;4.07;;;1.20;;
22861;SDS011;11598;50.652;6.172;2023-04-23T14:31:28;6.95;;;1.70;;
22861;SDS011;11598;50.652;6.172;2023-04-23T14:41:33;7.72;;;1.50;;
22861;SDS011;11598;50.652;6.172;2023-04-23T14:51:33;7.90;;;2.30;;
22861;SDS011;11598;50.652;6.172;2023-04-23T15:01:34;3.55;;;1.40;;
22861;SDS011;11598;50.652;6.172;2023-04-23T15:11:34;6.43;;;2.20;;
22861;SDS011;11598;50.652;6.172;2023-04-23T15:21:37;5.93;;;1.90;;
22861;SDS011;11598;50.652;6.172;2023-04-23T15:31:38;5.38;;;1.35;;
22861;SDS011;11598;50.652;6.172;2023-04-23T15:41:38;4.30;;;1.52;;
22861;SDS011;11598;50.652;6.172;2023-04-23T15:51:38;3.88;;;1.70;;
22861;SDS011;11598;50.652;6.172;2023-04-23T16:01:40;5.28;;;1.95;;
22861;SDS011;11598;50.652;6.172;2023-04-23T16:11:40;3.80;;;1.10;;
22861;SDS011;11598;50.652;6.172;2023-04-23T16:21:41;4.13;;;1.30;;
22861;SDS011;11598;50.652;6.172;2023-04-23T16:31:41;2.60;;;0.93;;
22861;SDS011;11598;50.652;6.172;2023-04-23T16:41:41;2.95;;;1.00;;
22861;SDS011;11598;50.652;6.172;2023-04-23T16:51:42;2.85;;;0.95;;
22861;SDS011;11598;50.652;6.172;2023-04-23T17:01:42;3.00;;;0.95;;
22861;SDS011;11598;50.652;6.172;2023-04-23T17:11:43;4.72;;;1.33;;
22861;SDS011;11598;50.652;6.172;2023-04-23T17:21:43;2.88;;;1.20;;
22861;SDS011;11598;50.652;6.172;2023-04-23T17:31:43;3.70;;;1.58;;
22861;SDS011;11598;50.652;6.172;2023-04-23T17:41:44;4.68;;;0.93;;
22861;SDS011;11598;50.652;6.172;2023-04-23T17:51:44;11.68;;;2.00;;
22861;SDS011;11598;50.652;6.172;2023-04-23T18:01:45;2.20;;;0.38;;
22861;SDS011;11598;50.652;6.172;2023-04-23T18:11:48;1.67;;;0.68;;
22861;SDS011;11598;50.652;6.172;2023-04-23T18:21:48;4.43;;;0.60;;
22861;SDS011;11598;50.652;6.172;2023-04-23T18:31:49;1.53;;;0.53;;
22861;SDS011;11598;50.652;6.172;2023-04-23T18:41:50;0.93;;;0.47;;
22861;SDS011;11598;50.652;6.172;2023-04-23T18:51:51;0.77;;;0.30;;
22861;SDS011;11598;50.652;6.172;2023-04-23T19:01:51;1.02;;;0.40;;
22861;SDS011;11598;50.652;6.172;2023-04-23T19:11:52;2.33;;;0.50;;
22861;SDS011;11598;50.652;6.172;2023-04-23T19:21:53;1.27;;;0.45;;
22861;SDS011;11598;50.652;6.172;2023-04-23T19:31:53;2.42;;;0.47;;
22861;SDS011;11598;50.652;6.172;2023-04-23T19:41:53;1.10;;;0.40;;
22861;SDS011;11598;50.652;6.172;2023-04-23T19:51:54;1.75;;;0.68;;
22861;SDS011;11598;50.652;6.172;2023-04-23T20:01:56;1.45;;;0.50;;
22861;SDS011;11598;50.652;6.172;2023-04-23T20:11:57;1.98;;;0.57;;
22861;SDS011;11598;50.652;6.172;2023-04-23T20:21:57;1.65;;;0.82;;
22861;SDS011;11598;50.652;6.172;2023-04-23T20:31:58;1.67;;;0.77;;
22861;SDS011;11598;50.652;6.172;2023-04-23T20:41:58;4.10;;;0.90;;
22861;SDS011;11598;50.652;6.172;2023-04-23T20:51:59;1.08;;;0.50;;
22861;SDS011;11598;50.652;6.172;2023-04-23T21:02:00;5.18;;;0.70;;
22861;SDS011;11598;50.652;6.172;2023-04-23T21:12:00;2.10;;;0.70;;
22861;SDS011;11598;50.652;6.172;2023-04-23T21:22:01;1.40;;;0.60;;
22861;SDS011;11598;50.652;6.172;2023-04-23T21:32:01;3.38;;;0.77;;
22861;SDS011;11598;50.652;6.172;2023-04-23T21:42:02;1.98;;;0.88;;
22861;SDS011;11598;50.652;6.172;2023-04-23T21:52:02;1.92;;;0.73;;
22861;SDS011;11598;50.652;6.172;2023-04-23T22:02:02;2.15;;;1.17;;
22861;SDS011;11598;50.652;6.172;2023-04-23T22:12:03;6.65;;;1.42;;
22861;SDS011;11598;50.652;6.172;2023-04-23T22:22:04;4.25;;;1.60;;
22861;SDS011;11598;50.652;6.172;2023-04-23T22:32:05;3.38;;;1.50;;
22861;SDS011;11598;50.652;6.172;2023-04-23T22:42:05;5.75;;;1.50;;
22861;SDS011;11598;50.652;6.172;2023-04-23T22:52:05;5.25;;;1.40;;
22861;SDS011;11598;50.652;6.172;2023-04-23T23:02:07;4.25;;;1.30;;
22861;SDS011;11598;50.652;6.172;2023-04-23T23:12:08;5.35;;;1.50;;
22861;SDS011;11598;50.652;6.172;2023-04-23T23:22:08;3.70;;;1.70;;
22861;SDS011;11598;50.652;6.172;2023-04-23T23:32:08;3.67;;;1.38;;
22861;SDS011;11598;50.652;6.172;2023-04-23T23:42:09;6.03;;;1.50;;
22861;SDS011;11598;50.652;6.172;2023-04-23T23:52:09;3.58;;;1.67;;
